Latest Weather Observations for Barrow Island

IDW60801

Issued at 8:33 am WST Friday 31 March 2017 (issued every 30 minutes, with the page automatically refreshed every 10 minutes)

About weather observations | Map of weather stations | Latest weather observations for WA | Other Formats
Station Details ID: 005094 Name: BARROW ISLAND AIRPORT Lat: -20.87 Lon: 115.41 Height: 6.4 m
Data from the previous 72 hours. | See also: Recent months at Barrow Island
Date/Time
WST
Temp
°C
App
Temp
°C
Dew
Point
°C
Rel
Hum
%
Delta-T
°C
Wind Press
QNH
hPa
Press
MSL
hPa
Rain since
9am
mm
Dir  Spd
km/h
Gust
km/h
Spd
kts
Gust
kts
31/08:30am 27.3 32.9 25.5 90 1.3 S 6 7 3 4 1015.0 - 20.0
31/08:00am 26.3 31.3 24.5 90 1.2 ENE 6 9 3 5 1014.3 - 19.8
31/07:30am 26.1 30.7 24.1 89 1.4 SE 7 20 4 11 1014.6 - 11.8
31/07:05am 28.1 27.3 24.7 82 2.4 SSE 37 44 20 24 1013.8 - 0.0
31/07:00am 28.2 29.8 23.8 77 3.0 S 22 33 12 18 1013.8 - 0.0
31/06:30am 28.7 33.6 25.3 82 2.4 S 9 11 5 6 1013.5 - 0.0
31/06:00am 28.7 32.7 25.1 81 2.5 S 13 15 7 8 1013.3 1013.3 0.0
31/05:30am 28.8 33.3 25.2 81 2.5 S 11 15 6 8 1013.1 - 0.0
31/05:00am 28.7 33.1 25.1 81 2.5 S 11 13 6 7 1013.0 - 0.0
31/04:30am 28.7 33.6 25.3 82 2.4 SSW 9 13 5 7 1012.9 - 0.0
31/04:00am 28.5 33.8 25.3 83 2.2 WSW 7 9 4 5 1012.7 - 0.0
31/03:30am 28.5 33.8 25.3 83 2.2 SW 7 9 4 5 1012.7 - 0.0
31/03:00am 28.4 34.9 25.0 82 2.4 CALM 0 0 0 0 1012.8 1012.8 0.0
31/02:30am 28.3 34.3 24.9 82 2.4 NW 2 6 1 3 1012.8 - 0.0
31/02:00am 28.2 33.5 25.0 83 2.2 NW 6 6 3 3 1013.0 - 0.0
31/01:30am 28.1 33.2 24.7 82 2.4 NW 6 6 3 3 1013.2 - 0.0
31/01:00am 28.1 33.2 24.9 83 2.2 NW 7 9 4 5 1013.3 - 0.0
31/12:30am 28.1 33.4 24.9 83 2.2 WNW 6 7 3 4 1013.6 - 0.0
31/12:00am 28.2 33.4 24.8 82 2.4 WNW 6 7 3 4 1013.8 1013.8 0.0
 
Date/Time
WST
Temp
°C
App
Temp
°C
Dew
Point
°C
Rel
Hum
%
Delta-T
°C
Wind Press
QNH
hPa
Press
MSL
hPa
Rain since
9am
mm
Dir  Spd
km/h
Gust
km/h
Spd
kts
Gust
kts
30/11:30pm 28.4 34.4 24.8 81 2.5 WNW 2 6 1 3 1013.7 - 0.0
30/11:00pm 28.2 33.4 24.8 82 2.4 WNW 6 6 3 3 1013.8 - 0.0
30/10:30pm 28.4 33.4 24.8 81 2.5 N 7 9 4 5 1014.0 - 0.0
30/10:00pm 28.5 33.1 24.7 80 2.7 N 9 11 5 6 1014.1 - 0.0
30/09:30pm 28.5 33.2 24.9 81 2.5 N 9 13 5 7 1014.1 - 0.0
30/09:00pm 28.5 32.4 24.9 81 2.5 NNE 13 17 7 9 1013.9 1013.9 0.0
30/08:30pm 28.7 32.2 24.9 80 2.7 NNE 15 17 8 9 1013.6 - 0.0
30/08:00pm 28.8 32.4 25.0 80 2.7 NNE 15 17 8 9 1013.1 - 0.0
30/07:30pm 28.8 32.5 24.6 78 2.9 NNE 13 19 7 10 1012.9 - 0.0
30/07:00pm 29.0 32.6 24.3 76 3.3 N 13 17 7 9 1012.5 - 0.0
30/06:30pm 29.2 32.1 24.5 76 3.3 NNE 17 20 9 11 1012.2 - 0.0
30/06:00pm 29.9 31.4 24.3 72 3.9 NNE 24 28 13 15 1011.8 1011.8 0.0
30/05:30pm 30.4 32.0 24.5 70 4.1 NNE 24 28 13 15 1011.7 - 0.0
30/05:00pm 30.6 32.3 24.7 71 4.1 NE 24 30 13 16 1011.6 - 0.0
30/04:30pm 30.7 32.7 25.1 72 3.9 NE 24 28 13 15 1011.4 - 0.0
30/04:00pm 31.0 32.1 24.4 68 4.6 NE 26 30 14 16 1011.2 - 0.0
30/03:30pm 31.2 32.5 24.6 68 4.6 NE 26 30 14 16 1011.4 - 0.0
30/03:00pm 31.1 32.5 24.2 66 4.8 ENE 24 30 13 16 1011.5 1011.5 0.0
30/02:30pm 31.1 31.7 24.2 66 4.8 ENE 28 32 15 17 1011.5 - 0.0
30/02:00pm 31.1 31.4 24.2 66 4.8 ENE 30 35 16 19 1011.6 - 0.0
30/01:30pm 31.2 31.7 24.6 68 4.6 ENE 30 35 16 19 1011.7 - 0.0
30/01:00pm 31.1 31.0 24.5 68 4.6 ENE 33 39 18 21 1012.0 - 0.0
30/12:30pm 30.7 30.1 24.4 69 4.4 ENE 35 41 19 22 1012.3 - 0.0
30/12:00pm 30.8 30.4 24.7 70 4.3 E 35 39 19 21 1012.6 1012.6 0.0
30/11:30am 30.8 30.2 24.4 68 4.5 E 35 41 19 22 1012.7 - 0.0
30/11:00am 30.5 29.3 23.9 68 4.6 E 37 43 20 23 1013.1 - 0.0
30/10:30am 30.4 29.3 24.1 69 4.4 E 37 43 20 23 1013.3 - 0.0
30/10:00am 30.6 28.5 23.8 67 4.7 E 41 46 22 25 1013.4 - 0.0
30/09:30am 30.5 28.6 23.4 66 4.9 E 39 46 21 25 1013.3 - 0.0
30/09:00am 30.3 28.9 24.2 70 4.2 ENE 39 46 21 25 1013.3 1013.3 0.0
30/08:30am 30.0 28.8 23.9 70 4.2 ENE 37 46 20 25 1012.9 - 0.0
30/08:00am 29.5 28.9 24.4 74 3.6 E 35 41 19 22 1012.7 - 0.0
30/07:30am 29.1 29.1 24.4 76 3.3 ENE 32 37 17 20 1012.4 - 0.0
30/07:00am 28.8 28.1 24.1 76 3.3 E 35 41 19 22 1012.1 - 0.0
30/06:30am 28.5 28.7 24.7 80 2.7 E 32 39 17 21 1011.7 - 0.0
30/06:00am 28.7 30.0 25.3 82 2.4 E 28 32 15 17 1011.4 1011.4 0.0
30/05:30am 28.7 30.5 25.5 83 2.3 E 26 30 14 16 1011.2 - 0.0
30/05:00am 29.0 30.6 25.2 80 2.7 ENE 26 32 14 17 1011.2 - 0.0
30/04:30am 28.9 30.6 25.3 81 2.5 E 26 28 14 15 1011.0 - 0.0
30/04:00am 28.9 30.9 25.7 83 2.3 E 26 30 14 16 1010.9 - 0.0
30/03:30am 29.1 30.9 24.9 78 2.9 ENE 24 28 13 15 1010.9 - 0.0
30/03:00am 29.2 31.1 25.0 78 2.9 ENE 24 28 13 15 1011.1 1011.1 0.0
30/02:30am 29.1 30.7 25.1 79 2.8 ENE 26 30 14 16 1011.2 - 0.0
30/02:00am 29.2 31.3 25.4 80 2.7 ENE 24 28 13 15 1011.4 - 0.0
30/01:30am 29.2 31.7 25.4 80 2.7 ENE 22 26 12 14 1011.4 - 0.0
30/01:00am 29.3 31.5 24.8 77 3.1 ENE 22 28 12 15 1011.4 - 0.0
30/12:30am 29.2 29.7 22.7 68 4.4 ENE 24 28 13 15 1011.4 - 0.0
30/12:00am 28.9 29.9 24.7 78 2.9 ENE 28 32 15 17 1011.4 1011.4 0.0
 
Date/Time
WST
Temp
°C
App
Temp
°C
Dew
Point
°C
Rel
Hum
%
Delta-T
°C
Wind Press
QNH
hPa
Press
MSL
hPa
Rain since
9am
mm
Dir  Spd
km/h
Gust
km/h
Spd
kts
Gust
kts
29/11:30pm 29.2 31.0 25.4 80 2.7 ENE 26 32 14 17 1011.6 - 0.0
29/11:00pm 29.1 30.6 25.5 81 2.5 E 28 32 15 17 1011.7 - 0.0
29/10:30pm 29.2 30.8 25.2 79 2.8 E 26 30 14 16 1011.5 - 0.0
29/10:00pm 29.3 31.0 25.9 82 2.4 E 28 30 15 16 1011.4 - 0.0
29/09:30pm 29.4 30.7 25.2 78 3.0 ENE 28 32 15 17 1011.2 - 0.0
29/09:00pm 27.9 28.7 24.5 82 2.4 NE 28 41 15 22 1010.6 1010.6 0.0
29/08:30pm 29.0 31.4 25.8 83 2.3 E 24 30 13 16 1010.7 - 0.0
29/08:00pm 29.5 31.5 23.9 72 3.9 ENE 20 26 11 14 1010.6 - 0.0
29/07:30pm 29.7 32.2 24.8 75 3.4 E 20 24 11 13 1010.7 - 0.0
29/07:00pm 29.6 32.5 25.1 77 3.2 ENE 19 22 10 12 1010.2 - 0.0
29/06:30pm 29.6 32.5 25.1 77 3.2 ENE 19 22 10 12 1009.8 - 0.0
29/06:00pm 29.9 32.7 25.2 76 3.3 ENE 20 24 11 13 1008.9 1008.9 0.0
29/05:30pm 30.2 33.0 25.3 75 3.5 ENE 20 24 11 13 1008.5 - 0.0
29/05:00pm 30.5 33.3 24.9 72 3.9 ENE 19 24 10 13 1008.3 - 0.0
29/04:30pm 31.2 33.9 25.1 70 4.3 NE 20 24 11 13 1008.0 - 0.0
29/04:00pm 31.4 34.0 25.5 71 4.2 NE 22 26 12 14 1008.2 - 0.0
29/03:30pm 31.8 34.2 25.2 68 4.7 NE 22 28 12 15 1008.3 - 0.0
29/03:00pm 31.8 34.5 25.6 69 4.4 NE 22 26 12 14 1008.4 1008.4 0.0
29/02:30pm 31.8 33.9 24.7 66 5.0 NE 22 24 12 13 1008.3 - 0.0
29/02:00pm 31.8 34.3 25.4 69 4.5 NE 22 24 12 13 1008.7 - 0.0
29/01:30pm 31.9 34.5 25.5 69 4.5 NE 22 26 12 14 1009.0 - 0.0
29/01:00pm 31.9 34.2 25.0 67 4.9 ENE 22 28 12 15 1009.2 - 0.0
29/12:30pm 31.6 34.1 24.7 67 4.8 ENE 20 24 11 13 1009.5 - 0.0
29/12:00pm 31.8 34.3 24.4 65 5.2 ENE 19 26 10 14 1009.9 1009.9 0.0
29/11:30am 31.9 34.6 24.2 63 5.4 ENE 17 20 9 11 1010.3 - 0.0
29/11:00am 32.0 34.1 23.8 62 5.7 E 19 22 10 12 1010.6 - 0.0
29/10:30am 31.2 34.3 24.1 66 4.9 ESE 15 19 8 10 1010.9 - 0.0
29/10:00am 31.2 35.1 24.3 66 4.8 SE 11 15 6 8 1010.9 - 0.0
29/09:30am 30.6 34.2 24.3 69 4.4 SE 13 17 7 9 1010.7 - 0.0
29/09:00am 30.4 33.1 24.8 72 3.9 SE 19 20 10 11 1010.7 1010.7 0.0
29/08:30am 30.3 32.7 24.2 70 4.2 SE 19 22 10 12 1010.6 - 0.0
29/08:00am 29.7 32.9 24.3 73 3.8 ESE 15 19 8 10 1010.3 - 0.0
29/07:30am 29.1 32.0 24.4 76 3.3 E 17 20 9 11 1010.0 - 0.0
29/07:00am 28.4 30.6 24.2 78 2.9 ESE 20 26 11 14 1009.5 - 0.0
29/06:30am 28.0 29.3 24.0 79 2.8 ESE 24 28 13 15 1009.3 - 0.0
29/06:00am 28.0 29.6 23.8 78 2.9 E 22 28 12 15 1008.8 1008.8 0.0
29/05:30am 27.6 28.4 23.8 80 2.6 ESE 26 30 14 16 1008.7 - 0.0
29/05:00am 27.5 29.0 23.7 80 2.6 SE 22 26 12 14 1008.5 - 0.0
29/04:30am 27.4 28.5 23.6 80 2.6 SE 24 28 13 15 1008.6 - 0.0
29/04:00am 27.6 27.3 23.8 80 2.6 SE 32 37 17 20 1008.7 - 0.0
29/03:30am 27.5 29.1 23.9 81 2.5 SSE 22 28 12 15 1008.5 - 0.0
29/03:00am 27.2 28.1 23.4 80 2.6 SSE 24 30 13 16 1008.4 1008.4 0.0
29/02:30am 27.2 28.3 23.7 81 2.4 SSE 24 32 13 17 1008.4 - 0.0
29/02:00am 27.2 28.5 23.4 80 2.6 SSE 22 28 12 15 1008.9 - 0.0
29/01:30am 27.2 27.9 23.7 81 2.4 SSE 26 32 14 17 1009.5 - 0.0
29/01:00am 26.9 27.5 23.4 81 2.4 SSE 26 33 14 18 1010.0 - 0.0
29/12:30am 27.0 27.0 23.7 82 2.3 SSE 30 39 16 21 1010.6 - 0.0
29/12:00am 26.6 24.9 23.1 81 2.4 SSE 37 44 20 24 1011.4 1011.4 0.0
 
Date/Time
WST
Temp
°C
App
Temp
°C
Dew
Point
°C
Rel
Hum
%
Delta-T
°C
Wind Press
QNH
hPa
Press
MSL
hPa
Rain since
9am
mm
Dir  Spd
km/h
Gust
km/h
Spd
kts
Gust
kts
28/11:30pm 26.6 23.7 23.3 82 2.3 SSE 44 52 24 28 1011.3 - 0.0
28/11:00pm 26.8 26.1 23.5 82 2.3 SSE 33 37 18 20 1011.0 - 0.0
28/10:30pm 27.1 23.6 24.2 84 2.0 S 50 59 27 32 1010.9 - 0.0
28/10:24pm 27.7 24.3 23.7 79 2.7 S 48 57 26 31 1010.7 - 0.0
28/10:22pm 28.5 27.1 23.6 75 3.4 SSW 37 57 20 31 1010.7 - 0.0
28/10:00pm 29.3 31.5 25.5 80 2.7 SW 24 33 13 18 1010.4 - 0.0
28/09:30pm 29.2 32.0 25.2 79 2.8 WSW 20 24 11 13 1009.8 - 0.0
28/09:00pm 29.1 32.4 25.1 79 2.8 WSW 17 20 9 11 1010.0 1010.0 0.0
28/08:30pm 29.1 33.0 24.9 78 2.9 W 13 15 7 8 1009.7 - 0.0
28/08:00pm 29.2 32.5 24.5 76 3.3 WNW 15 17 8 9 1009.3 - 0.0
28/07:30pm 29.5 33.4 24.8 76 3.3 NW 13 17 7 9 1009.0 - 0.0
28/07:00pm 29.7 33.1 24.6 74 3.6 NW 15 19 8 10 1008.7 - 0.0
28/06:30pm 30.4 34.3 23.6 67 4.7 NW 9 15 5 8 1008.4 - 0.0
28/06:00pm 31.6 34.9 23.2 61 5.8 WNW 11 15 6 8 1007.8 1007.8 0.0
28/05:30pm 31.4 34.8 25.3 70 4.3 NE 17 19 9 10 1007.4 - 0.0
28/05:00pm 31.2 33.7 24.8 69 4.5 ENE 20 24 11 13 1007.4 - 0.0
28/04:30pm 31.5 33.9 24.6 67 4.8 NE 20 24 11 13 1007.7 - 0.0
28/04:00pm 32.0 33.2 23.8 62 5.7 NNE 24 28 13 15 1007.8 - 0.0
28/03:30pm 32.1 33.6 24.9 65 5.1 NE 26 32 14 17 1008.0 - 0.0
28/03:00pm 31.9 32.6 23.7 62 5.7 NE 26 32 14 17 1008.3 1008.3 0.0
28/02:30pm 32.1 33.1 22.8 58 6.4 ENE 22 26 12 14 1008.6 - 0.0
28/02:00pm 32.6 33.6 23.5 58 6.3 NE 24 30 13 16 1008.9 - 0.0
28/01:30pm 32.4 34.2 24.2 62 5.7 NE 22 28 12 15 1009.2 - 0.0
28/01:00pm 32.1 33.2 23.6 60 5.9 NE 24 28 13 15 1009.7 - 0.0
28/12:30pm 32.0 34.0 24.6 65 5.2 ENE 22 26 12 14 1010.3 - 0.0
28/12:00pm 32.0 33.6 25.1 67 4.9 ENE 26 30 14 16 1010.7 1010.7 0.0
28/11:30am 31.9 32.8 24.0 63 5.5 ENE 26 30 14 16 1010.9 - 0.0
28/11:00am 31.9 32.8 24.0 63 5.5 ENE 26 28 14 15 1011.0 - 0.0
28/10:30am 31.7 33.6 23.8 63 5.5 ENE 20 24 11 13 1011.0 - 0.0
28/10:00am 31.8 34.2 23.6 62 5.7 ENE 17 20 9 11 1010.9 - 0.0
28/09:30am 31.4 33.4 23.0 61 5.8 ENE 17 20 9 11 1010.9 - 0.0
28/09:00am 31.2 33.8 23.3 63 5.5 ENE 15 17 8 9 1011.0 1011.0 0.0

Other Formats:

Comma delimited format used in spreadsheet applications
http://www.bom.gov.au/fwo/IDW60801/IDW60801.95304.axf

JavaScript Object Notation format (JSON) in row-major order
http://www.bom.gov.au/fwo/IDW60801/IDW60801.95304.json